sensor_id;sensor_type;location;lat;lon;timestamp;temperature;humidity
12957;DHT22;6543;48.836;10.092;2023-06-14T00:01:14;12.30;99.90
12957;DHT22;6543;48.836;10.092;2023-06-14T00:03:42;13.20;99.90
12957;DHT22;6543;48.836;10.092;2023-06-14T00:06:09;13.00;99.90
12957;DHT22;6543;48.836;10.092;2023-06-14T00:08:37;12.20;99.90
12957;DHT22;6543;48.836;10.092;2023-06-14T00:11:05;12.10;99.90
12957;DHT22;6543;48.836;10.092;2023-06-14T00:13:32;12.70;99.90
12957;DHT22;6543;48.836;10.092;2023-06-14T00:16:00;13.30;99.90
12957;DHT22;6543;48.836;10.092;2023-06-14T00:18:29;11.90;99.90
12957;DHT22;6543;48.836;10.092;2023-06-14T00:20:56;12.00;99.90
12957;DHT22;6543;48.836;10.092;2023-06-14T00:23:23;12.80;99.90
12957;DHT22;6543;48.836;10.092;2023-06-14T00:25:51;11.70;99.90
12957;DHT22;6543;48.836;10.092;2023-06-14T00:28:18;12.70;99.90
12957;DHT22;6543;48.836;10.092;2023-06-14T00:30:46;12.70;99.90
12957;DHT22;6543;48.836;10.092;2023-06-14T00:33:14;11.50;99.90
12957;DHT22;6543;48.836;10.092;2023-06-14T00:35:41;12.60;99.90
12957;DHT22;6543;48.836;10.092;2023-06-14T00:38:08;12.30;99.90
12957;DHT22;6543;48.836;10.092;2023-06-14T00:40:35;11.50;99.90
12957;DHT22;6543;48.836;10.092;2023-06-14T00:43:02;11.40;99.90
12957;DHT22;6543;48.836;10.092;2023-06-14T00:45:29;11.30;99.90
12957;DHT22;6543;48.836;10.092;2023-06-14T00:47:57;11.80;99.90
12957;DHT22;6543;48.836;10.092;2023-06-14T00:50:33;11.90;99.90
12957;DHT22;6543;48.836;10.092;2023-06-14T00:53:02;12.30;99.90
12957;DHT22;6543;48.836;10.092;2023-06-14T00:55:29;12.70;99.90
12957;DHT22;6543;48.836;10.092;2023-06-14T00:57:58;11.20;99.90
12957;DHT22;6543;48.836;10.092;2023-06-14T01:00:25;10.70;99.90
12957;DHT22;6543;48.836;10.092;2023-06-14T01:02:54;12.20;99.90
12957;DHT22;6543;48.836;10.092;2023-06-14T01:05:23;11.60;99.90
12957;DHT22;6543;48.836;10.092;2023-06-14T01:08:01;11.10;99.90
12957;DHT22;6543;48.836;10.092;2023-06-14T01:10:37;11.90;99.90
12957;DHT22;6543;48.836;10.092;2023-06-14T01:13:12;10.90;99.90
12957;DHT22;6543;48.836;10.092;2023-06-14T01:15:43;12.30;99.90
12957;DHT22;6543;48.836;10.092;2023-06-14T01:18:11;11.00;99.90
12957;DHT22;6543;48.836;10.092;2023-06-14T01:20:43;12.10;99.90
12957;DHT22;6543;48.836;10.092;2023-06-14T01:23:12;10.90;99.90
12957;DHT22;6543;48.836;10.092;2023-06-14T01:25:39;11.30;99.90
12957;DHT22;6543;48.836;10.092;2023-06-14T01:28:10;10.70;99.90
12957;DHT22;6543;48.836;10.092;2023-06-14T01:30:39;10.90;99.90
12957;DHT22;6543;48.836;10.092;2023-06-14T01:33:10;11.60;99.90
12957;DHT22;6543;48.836;10.092;2023-06-14T01:35:38;11.00;99.90
12957;DHT22;6543;48.836;10.092;2023-06-14T01:38:06;11.90;99.90
12957;DHT22;6543;48.836;10.092;2023-06-14T01:40:36;10.40;99.90
12957;DHT22;6543;48.836;10.092;2023-06-14T01:43:04;9.10;99.90
12957;DHT22;6543;48.836;10.092;2023-06-14T01:45:33;10.40;99.90
12957;DHT22;6543;48.836;10.092;2023-06-14T01:48:00;10.30;99.90
12957;DHT22;6543;48.836;10.092;2023-06-14T01:50:28;10.80;99.90
12957;DHT22;6543;48.836;10.092;2023-06-14T01:52:56;12.10;99.90
12957;DHT22;6543;48.836;10.092;2023-06-14T01:55:23;10.90;99.90
12957;DHT22;6543;48.836;10.092;2023-06-14T01:57:52;11.00;99.90
12957;DHT22;6543;48.836;10.092;2023-06-14T02:00:20;11.60;99.90
12957;DHT22;6543;48.836;10.092;2023-06-14T02:02:47;10.40;99.90
12957;DHT22;6543;48.836;10.092;2023-06-14T02:05:15;9.80;99.90
12957;DHT22;6543;48.836;10.092;2023-06-14T02:07:44;10.30;99.90
12957;DHT22;6543;48.836;10.092;2023-06-14T02:10:11;10.20;99.90
12957;DHT22;6543;48.836;10.092;2023-06-14T02:12:38;11.00;99.90
12957;DHT22;6543;48.836;10.092;2023-06-14T02:15:08;11.40;99.90
12957;DHT22;6543;48.836;10.092;2023-06-14T02:17:35;10.30;99.90
12957;DHT22;6543;48.836;10.092;2023-06-14T02:20:03;11.40;99.90
12957;DHT22;6543;48.836;10.092;2023-06-14T02:22:31;10.30;99.90
12957;DHT22;6543;48.836;10.092;2023-06-14T02:24:58;10.90;99.90
12957;DHT22;6543;48.836;10.092;2023-06-14T02:27:25;11.40;99.90
12957;DHT22;6543;48.836;10.092;2023-06-14T02:29:52;11.40;99.90
12957;DHT22;6543;48.836;10.092;2023-06-14T02:32:21;9.00;99.90
12957;DHT22;6543;48.836;10.092;2023-06-14T02:34:48;10.20;99.90
12957;DHT22;6543;48.836;10.092;2023-06-14T02:37:15;10.70;99.90
12957;DHT22;6543;48.836;10.092;2023-06-14T02:39:42;10.20;99.90
12957;DHT22;6543;48.836;10.092;2023-06-14T02:42:09;10.20;99.90
12957;DHT22;6543;48.836;10.092;2023-06-14T02:44:36;10.20;99.90
12957;DHT22;6543;48.836;10.092;2023-06-14T02:47:04;10.10;99.90
12957;DHT22;6543;48.836;10.092;2023-06-14T02:49:33;10.00;99.90
12957;DHT22;6543;48.836;10.092;2023-06-14T02:52:00;9.90;99.90
12957;DHT22;6543;48.836;10.092;2023-06-14T02:54:26;10.20;99.90
12957;DHT22;6543;48.836;10.092;2023-06-14T02:56:53;10.20;99.90
12957;DHT22;6543;48.836;10.092;2023-06-14T02:59:20;10.70;99.90
12957;DHT22;6543;48.836;10.092;2023-06-14T03:01:50;9.80;99.90
12957;DHT22;6543;48.836;10.092;2023-06-14T03:04:17;9.70;99.90
12957;DHT22;6543;48.836;10.092;2023-06-14T03:06:46;10.00;99.90
12957;DHT22;6543;48.836;10.092;2023-06-14T03:09:16;9.60;99.90
12957;DHT22;6543;48.836;10.092;2023-06-14T03:11:43;9.80;99.90
12957;DHT22;6543;48.836;10.092;2023-06-14T03:14:10;10.70;99.90
12957;DHT22;6543;48.836;10.092;2023-06-14T03:16:39;9.80;99.90
12957;DHT22;6543;48.836;10.092;2023-06-14T03:19:06;11.00;99.90
12957;DHT22;6543;48.836;10.092;2023-06-14T03:21:35;9.80;99.90
12957;DHT22;6543;48.836;10.092;2023-06-14T03:24:03;10.00;99.90
12957;DHT22;6543;48.836;10.092;2023-06-14T03:26:31;9.70;99.90
12957;DHT22;6543;48.836;10.092;2023-06-14T03:28:59;11.40;99.90
12957;DHT22;6543;48.836;10.092;2023-06-14T03:31:28;9.80;99.90
12957;DHT22;6543;48.836;10.092;2023-06-14T03:33:58;11.20;99.90
12957;DHT22;6543;48.836;10.092;2023-06-14T03:36:25;9.80;99.90
12957;DHT22;6543;48.836;10.092;2023-06-14T03:38:53;9.70;99.90
12957;DHT22;6543;48.836;10.092;2023-06-14T03:41:22;10.60;99.90
12957;DHT22;6543;48.836;10.092;2023-06-14T03:43:50;9.70;99.90
12957;DHT22;6543;48.836;10.092;2023-06-14T03:46:17;9.50;99.90
12957;DHT22;6543;48.836;10.092;2023-06-14T03:48:44;9.50;99.90
12957;DHT22;6543;48.836;10.092;2023-06-14T03:51:12;9.70;99.90
12957;DHT22;6543;48.836;10.092;2023-06-14T03:53:39;11.10;99.90
12957;DHT22;6543;48.836;10.092;2023-06-14T03:56:06;10.30;99.90
12957;DHT22;6543;48.836;10.092;2023-06-14T03:58:35;11.20;99.90
12957;DHT22;6543;48.836;10.092;2023-06-14T04:01:02;11.90;99.90
12957;DHT22;6543;48.836;10.092;2023-06-14T04:03:29;10.40;99.90
12957;DHT22;6543;48.836;10.092;2023-06-14T04:05:56;11.30;99.90
12957;DHT22;6543;48.836;10.092;2023-06-14T04:08:25;11.40;99.90
12957;DHT22;6543;48.836;10.092;2023-06-14T04:10:52;10.60;99.90
12957;DHT22;6543;48.836;10.092;2023-06-14T04:13:19;10.60;99.90
12957;DHT22;6543;48.836;10.092;2023-06-14T04:15:48;11.60;99.90
12957;DHT22;6543;48.836;10.092;2023-06-14T04:18:18;12.20;99.90
12957;DHT22;6543;48.836;10.092;2023-06-14T04:20:46;10.90;99.90
12957;DHT22;6543;48.836;10.092;2023-06-14T04:23:14;10.90;99.90
12957;DHT22;6543;48.836;10.092;2023-06-14T04:25:43;9.70;99.90
12957;DHT22;6543;48.836;10.092;2023-06-14T04:28:13;12.40;99.90
12957;DHT22;6543;48.836;10.092;2023-06-14T04:30:40;11.10;99.90
12957;DHT22;6543;48.836;10.092;2023-06-14T04:33:09;11.30;99.90
12957;DHT22;6543;48.836;10.092;2023-06-14T04:35:37;11.60;99.90
12957;DHT22;6543;48.836;10.092;2023-06-14T04:38:04;11.50;99.90
12957;DHT22;6543;48.836;10.092;2023-06-14T04:40:34;13.10;99.90
12957;DHT22;6543;48.836;10.092;2023-06-14T04:43:08;11.60;99.90
12957;DHT22;6543;48.836;10.092;2023-06-14T04:45:38;12.80;99.90
12957;DHT22;6543;48.836;10.092;2023-06-14T04:48:05;11.90;99.90
12957;DHT22;6543;48.836;10.092;2023-06-14T04:50:35;11.10;99.90
12957;DHT22;6543;48.836;10.092;2023-06-14T04:53:02;12.20;99.90
12957;DHT22;6543;48.836;10.092;2023-06-14T04:55:29;12.50;99.90
12957;DHT22;6543;48.836;10.092;2023-06-14T04:57:56;11.90;99.90
12957;DHT22;6543;48.836;10.092;2023-06-14T05:00:23;12.50;99.90
12957;DHT22;6543;48.836;10.092;2023-06-14T05:02:51;13.30;99.90
12957;DHT22;6543;48.836;10.092;2023-06-14T05:05:18;13.40;99.90
12957;DHT22;6543;48.836;10.092;2023-06-14T05:07:47;13.60;99.90
12957;DHT22;6543;48.836;10.092;2023-06-14T05:10:15;14.00;99.90
12957;DHT22;6543;48.836;10.092;2023-06-14T05:12:42;13.90;99.90
12957;DHT22;6543;48.836;10.092;2023-06-14T05:15:10;13.70;99.90
12957;DHT22;6543;48.836;10.092;2023-06-14T05:17:37;14.20;99.90
12957;DHT22;6543;48.836;10.092;2023-06-14T05:20:07;13.70;99.90
12957;DHT22;6543;48.836;10.092;2023-06-14T05:22:35;14.30;99.90
12957;DHT22;6543;48.836;10.092;2023-06-14T05:25:04;14.40;99.90
12957;DHT22;6543;48.836;10.092;2023-06-14T05:27:31;14.30;99.90
12957;DHT22;6543;48.836;10.092;2023-06-14T05:32:36;14.50;99.90
12957;DHT22;6543;48.836;10.092;2023-06-14T05:35:04;14.50;99.90
12957;DHT22;6543;48.836;10.092;2023-06-14T05:37:34;14.50;99.90
12957;DHT22;6543;48.836;10.092;2023-06-14T05:40:02;15.00;99.90
12957;DHT22;6543;48.836;10.092;2023-06-14T05:42:33;15.00;99.90
12957;DHT22;6543;48.836;10.092;2023-06-14T05:45:00;14.20;99.90
12957;DHT22;6543;48.836;10.092;2023-06-14T05:47:28;15.90;99.90
12957;DHT22;6543;48.836;10.092;2023-06-14T05:49:58;16.20;99.90
12957;DHT22;6543;48.836;10.092;2023-06-14T05:52:25;14.50;99.90
12957;DHT22;6543;48.836;10.092;2023-06-14T05:54:53;14.90;99.90
12957;DHT22;6543;48.836;10.092;2023-06-14T05:57:20;15.40;99.90
12957;DHT22;6543;48.836;10.092;2023-06-14T05:59:49;14.90;99.90
12957;DHT22;6543;48.836;10.092;2023-06-14T06:02:20;14.90;99.90
12957;DHT22;6543;48.836;10.092;2023-06-14T06:04:48;15.20;99.90
12957;DHT22;6543;48.836;10.092;2023-06-14T06:07:15;15.10;99.90
12957;DHT22;6543;48.836;10.092;2023-06-14T06:09:43;15.00;99.90
12957;DHT22;6543;48.836;10.092;2023-06-14T06:12:11;15.10;99.90
12957;DHT22;6543;48.836;10.092;2023-06-14T06:14:38;15.30;99.90
12957;DHT22;6543;48.836;10.092;2023-06-14T06:17:07;16.20;99.90
12957;DHT22;6543;48.836;10.092;2023-06-14T06:19:34;15.40;99.90
12957;DHT22;6543;48.836;10.092;2023-06-14T06:22:02;15.80;99.90
12957;DHT22;6543;48.836;10.092;2023-06-14T06:24:30;15.90;99.90
12957;DHT22;6543;48.836;10.092;2023-06-14T06:26:57;16.00;99.90
12957;DHT22;6543;48.836;10.092;2023-06-14T06:29:24;16.10;99.90
12957;DHT22;6543;48.836;10.092;2023-06-14T06:31:51;16.80;99.90
12957;DHT22;6543;48.836;10.092;2023-06-14T06:34:19;16.20;99.90
12957;DHT22;6543;48.836;10.092;2023-06-14T06:36:47;16.20;99.90
12957;DHT22;6543;48.836;10.092;2023-06-14T06:39:14;16.30;99.90
12957;DHT22;6543;48.836;10.092;2023-06-14T06:41:41;16.50;99.90
12957;DHT22;6543;48.836;10.092;2023-06-14T06:44:08;16.50;99.90
12957;DHT22;6543;48.836;10.092;2023-06-14T06:46:36;16.70;99.90
12957;DHT22;6543;48.836;10.092;2023-06-14T06:49:06;16.80;99.90
12957;DHT22;6543;48.836;10.092;2023-06-14T06:51:41;18.20;99.90
12957;DHT22;6543;48.836;10.092;2023-06-14T06:54:11;16.90;99.90
12957;DHT22;6543;48.836;10.092;2023-06-14T06:56:38;16.90;99.90
12957;DHT22;6543;48.836;10.092;2023-06-14T06:59:28;18.00;99.90
12957;DHT22;6543;48.836;10.092;2023-06-14T07:02:01;17.30;99.90
12957;DHT22;6543;48.836;10.092;2023-06-14T07:04:29;17.50;99.90
12957;DHT22;6543;48.836;10.092;2023-06-14T07:06:58;17.70;99.90
12957;DHT22;6543;48.836;10.092;2023-06-14T07:09:26;18.00;99.90
12957;DHT22;6543;48.836;10.092;2023-06-14T07:11:53;18.00;99.90
12957;DHT22;6543;48.836;10.092;2023-06-14T07:14:20;18.10;99.90
12957;DHT22;6543;48.836;10.092;2023-06-14T07:16:48;18.00;99.90
12957;DHT22;6543;48.836;10.092;2023-06-14T07:19:15;17.90;99.90
12957;DHT22;6543;48.836;10.092;2023-06-14T07:21:42;18.00;99.90
12957;DHT22;6543;48.836;10.092;2023-06-14T07:24:14;17.90;99.90
12957;DHT22;6543;48.836;10.092;2023-06-14T07:26:41;18.10;99.90
12957;DHT22;6543;48.836;10.092;2023-06-14T07:29:08;18.20;99.90
12957;DHT22;6543;48.836;10.092;2023-06-14T07:31:35;18.30;99.90
12957;DHT22;6543;48.836;10.092;2023-06-14T07:34:02;18.20;99.90
12957;DHT22;6543;48.836;10.092;2023-06-14T07:36:30;18.00;99.90
12957;DHT22;6543;48.836;10.092;2023-06-14T07:38:57;18.10;99.90
12957;DHT22;6543;48.836;10.092;2023-06-14T07:41:25;18.20;99.90
12957;DHT22;6543;48.836;10.092;2023-06-14T07:43:52;18.50;99.80
12957;DHT22;6543;48.836;10.092;2023-06-14T07:46:19;18.80;98.70
12957;DHT22;6543;48.836;10.092;2023-06-14T07:48:47;19.00;97.20
12957;DHT22;6543;48.836;10.092;2023-06-14T07:51:15;19.20;95.70
12957;DHT22;6543;48.836;10.092;2023-06-14T07:53:42;19.50;94.30
12957;DHT22;6543;48.836;10.092;2023-06-14T07:56:09;19.80;92.90
12957;DHT22;6543;48.836;10.092;2023-06-14T07:58:37;20.00;92.40
12957;DHT22;6543;48.836;10.092;2023-06-14T08:01:04;19.40;93.80
12957;DHT22;6543;48.836;10.092;2023-06-14T08:03:34;19.80;92.90
12957;DHT22;6543;48.836;10.092;2023-06-14T08:06:04;19.80;92.20
12957;DHT22;6543;48.836;10.092;2023-06-14T08:08:31;20.00;92.00
12957;DHT22;6543;48.836;10.092;2023-06-14T08:10:59;19.60;91.70
12957;DHT22;6543;48.836;10.092;2023-06-14T08:13:26;19.80;90.80
12957;DHT22;6543;48.836;10.092;2023-06-14T08:15:54;20.10;91.70
12957;DHT22;6543;48.836;10.092;2023-06-14T08:18:23;19.70;92.50
12957;DHT22;6543;48.836;10.092;2023-06-14T08:20:50;19.70;93.10
12957;DHT22;6543;48.836;10.092;2023-06-14T08:23:17;19.70;92.70
12957;DHT22;6543;48.836;10.092;2023-06-14T08:25:46;20.20;92.00
12957;DHT22;6543;48.836;10.092;2023-06-14T08:28:13;20.20;91.50
12957;DHT22;6543;48.836;10.092;2023-06-14T08:30:42;20.20;91.30
12957;DHT22;6543;48.836;10.092;2023-06-14T08:33:11;20.60;91.10
12957;DHT22;6543;48.836;10.092;2023-06-14T08:35:38;20.40;91.10
12957;DHT22;6543;48.836;10.092;2023-06-14T08:38:05;20.20;91.10
12957;DHT22;6543;48.836;10.092;2023-06-14T08:40:37;20.10;91.10
12957;DHT22;6543;48.836;10.092;2023-06-14T08:43:05;20.30;91.30
12957;DHT22;6543;48.836;10.092;2023-06-14T08:45:32;20.70;91.00
12957;DHT22;6543;48.836;10.092;2023-06-14T08:48:00;20.40;91.10
12957;DHT22;6543;48.836;10.092;2023-06-14T08:50:30;20.10;91.70
12957;DHT22;6543;48.836;10.092;2023-06-14T08:53:02;19.80;91.20
12957;DHT22;6543;48.836;10.092;2023-06-14T08:55:30;20.10;90.60
12957;DHT22;6543;48.836;10.092;2023-06-14T08:57:58;20.10;90.00
12957;DHT22;6543;48.836;10.092;2023-06-14T09:00:27;20.50;89.80
12957;DHT22;6543;48.836;10.092;2023-06-14T09:02:55;20.40;89.90
12957;DHT22;6543;48.836;10.092;2023-06-14T09:05:23;20.20;90.30
12957;DHT22;6543;48.836;10.092;2023-06-14T09:07:52;21.80;91.90
12957;DHT22;6543;48.836;10.092;2023-06-14T09:10:22;20.50;90.00
12957;DHT22;6543;48.836;10.092;2023-06-14T09:12:51;20.50;90.40
12957;DHT22;6543;48.836;10.092;2023-06-14T09:15:18;20.30;90.70
12957;DHT22;6543;48.836;10.092;2023-06-14T09:17:46;20.40;90.80
12957;DHT22;6543;48.836;10.092;2023-06-14T09:20:13;20.80;90.50
12957;DHT22;6543;48.836;10.092;2023-06-14T09:22:43;20.80;90.20
12957;DHT22;6543;48.836;10.092;2023-06-14T09:25:12;21.00;89.40
12957;DHT22;6543;48.836;10.092;2023-06-14T09:27:41;20.90;88.80
12957;DHT22;6543;48.836;10.092;2023-06-14T09:30:09;21.00;88.80
12957;DHT22;6543;48.836;10.092;2023-06-14T09:32:39;21.10;88.90
12957;DHT22;6543;48.836;10.092;2023-06-14T09:35:07;21.20;88.80
12957;DHT22;6543;48.836;10.092;2023-06-14T09:37:34;21.40;87.80
12957;DHT22;6543;48.836;10.092;2023-06-14T09:40:04;21.60;86.70
12957;DHT22;6543;48.836;10.092;2023-06-14T09:42:34;21.50;83.30
12957;DHT22;6543;48.836;10.092;2023-06-14T09:45:02;21.30;83.20
12957;DHT22;6543;48.836;10.092;2023-06-14T09:47:29;21.40;82.60
12957;DHT22;6543;48.836;10.092;2023-06-14T09:49:57;21.40;84.20
12957;DHT22;6543;48.836;10.092;2023-06-14T09:52:27;21.30;83.80
12957;DHT22;6543;48.836;10.092;2023-06-14T09:54:56;21.60;82.10
12957;DHT22;6543;48.836;10.092;2023-06-14T09:57:27;21.20;82.10
12957;DHT22;6543;48.836;10.092;2023-06-14T10:00:02;21.30;81.00
12957;DHT22;6543;48.836;10.092;2023-06-14T10:02:37;21.50;79.90
12957;DHT22;6543;48.836;10.092;2023-06-14T10:05:15;21.70;80.90
12957;DHT22;6543;48.836;10.092;2023-06-14T10:07:50;21.80;80.60
12957;DHT22;6543;48.836;10.092;2023-06-14T10:10:19;21.90;80.80
12957;DHT22;6543;48.836;10.092;2023-06-14T10:12:47;22.30;79.70
12957;DHT22;6543;48.836;10.092;2023-06-14T10:15:30;22.30;80.60
12957;DHT22;6543;48.836;10.092;2023-06-14T10:18:04;22.40;80.50
12957;DHT22;6543;48.836;10.092;2023-06-14T10:20:41;22.90;80.20
12957;DHT22;6543;48.836;10.092;2023-06-14T10:23:17;22.50;79.20
12957;DHT22;6543;48.836;10.092;2023-06-14T10:25:45;21.90;79.20
12957;DHT22;6543;48.836;10.092;2023-06-14T10:28:17;21.80;79.30
12957;DHT22;6543;48.836;10.092;2023-06-14T10:31:09;22.20;78.50
12957;DHT22;6543;48.836;10.092;2023-06-14T10:33:39;22.20;79.50
12957;DHT22;6543;48.836;10.092;2023-06-14T10:36:24;22.50;78.80
12957;DHT22;6543;48.836;10.092;2023-06-14T10:39:05;22.50;77.50
12957;DHT22;6543;48.836;10.092;2023-06-14T10:41:35;22.40;78.10
12957;DHT22;6543;48.836;10.092;2023-06-14T10:44:31;22.60;77.60
12957;DHT22;6543;48.836;10.092;2023-06-14T10:47:00;22.40;78.70
12957;DHT22;6543;48.836;10.092;2023-06-14T10:49:38;21.60;79.40
12957;DHT22;6543;48.836;10.092;2023-06-14T10:52:09;22.20;78.50
12957;DHT22;6543;48.836;10.092;2023-06-14T10:57:39;22.00;80.10
12957;DHT22;6543;48.836;10.092;2023-06-14T11:00:08;22.10;80.30
12957;DHT22;6543;48.836;10.092;2023-06-14T11:02:52;23.00;77.70
12957;DHT22;6543;48.836;10.092;2023-06-14T11:05:28;23.10;75.40
12957;DHT22;6543;48.836;10.092;2023-06-14T11:08:05;23.00;77.10
12957;DHT22;6543;48.836;10.092;2023-06-14T11:10:38;22.30;76.90
12957;DHT22;6543;48.836;10.092;2023-06-14T11:13:06;22.50;77.50
12957;DHT22;6543;48.836;10.092;2023-06-14T11:15:35;22.40;77.60
12957;DHT22;6543;48.836;10.092;2023-06-14T11:18:10;22.40;78.70
12957;DHT22;6543;48.836;10.092;2023-06-14T11:20:40;22.50;79.00
12957;DHT22;6543;48.836;10.092;2023-06-14T11:23:07;23.10;78.30
12957;DHT22;6543;48.836;10.092;2023-06-14T11:25:37;22.60;77.80
12957;DHT22;6543;48.836;10.092;2023-06-14T11:28:04;22.60;77.70
12957;DHT22;6543;48.836;10.092;2023-06-14T11:30:31;22.80;77.50
12957;DHT22;6543;48.836;10.092;2023-06-14T11:32:59;22.70;76.60
12957;DHT22;6543;48.836;10.092;2023-06-14T11:35:28;22.50;77.50
12957;DHT22;6543;48.836;10.092;2023-06-14T11:37:56;22.70;77.30
12957;DHT22;6543;48.836;10.092;2023-06-14T11:40:24;22.80;76.60
12957;DHT22;6543;48.836;10.092;2023-06-14T11:42:58;22.70;77.20
12957;DHT22;6543;48.836;10.092;2023-06-14T11:45:27;23.00;77.30
12957;DHT22;6543;48.836;10.092;2023-06-14T11:47:55;23.10;77.30
12957;DHT22;6543;48.836;10.092;2023-06-14T11:50:23;23.00;77.90
12957;DHT22;6543;48.836;10.092;2023-06-14T11:52:54;23.40;77.30
12957;DHT22;6543;48.836;10.092;2023-06-14T11:55:22;23.60;76.50
12957;DHT22;6543;48.836;10.092;2023-06-14T11:57:49;23.30;76.00
12957;DHT22;6543;48.836;10.092;2023-06-14T12:00:16;23.10;76.10
12957;DHT22;6543;48.836;10.092;2023-06-14T12:02:52;22.80;76.50
12957;DHT22;6543;48.836;10.092;2023-06-14T12:05:21;22.40;77.20
12957;DHT22;6543;48.836;10.092;2023-06-14T12:07:48;22.20;77.10
12957;DHT22;6543;48.836;10.092;2023-06-14T12:10:17;22.60;76.80
12957;DHT22;6543;48.836;10.092;2023-06-14T12:12:44;22.70;76.10
12957;DHT22;6543;48.836;10.092;2023-06-14T12:15:11;22.60;76.00
12957;DHT22;6543;48.836;10.092;2023-06-14T12:17:39;22.60;75.60
12957;DHT22;6543;48.836;10.092;2023-06-14T12:20:09;22.50;75.50
12957;DHT22;6543;48.836;10.092;2023-06-14T12:22:39;22.70;75.50
12957;DHT22;6543;48.836;10.092;2023-06-14T12:25:06;22.90;75.70
12957;DHT22;6543;48.836;10.092;2023-06-14T12:27:39;22.60;76.20
12957;DHT22;6543;48.836;10.092;2023-06-14T12:30:10;22.60;76.20
12957;DHT22;6543;48.836;10.092;2023-06-14T12:32:39;22.60;75.50
12957;DHT22;6543;48.836;10.092;2023-06-14T12:35:07;22.70;76.40
12957;DHT22;6543;48.836;10.092;2023-06-14T12:37:34;22.80;75.30
12957;DHT22;6543;48.836;10.092;2023-06-14T12:40:02;22.80;75.30
12957;DHT22;6543;48.836;10.092;2023-06-14T12:42:32;22.90;75.40
12957;DHT22;6543;48.836;10.092;2023-06-14T12:45:01;22.60;75.40
12957;DHT22;6543;48.836;10.092;2023-06-14T12:47:28;22.90;75.50
12957;DHT22;6543;48.836;10.092;2023-06-14T12:49:56;22.40;76.10
12957;DHT22;6543;48.836;10.092;2023-06-14T12:52:23;22.40;76.30
12957;DHT22;6543;48.836;10.092;2023-06-14T12:54:50;22.40;76.70
12957;DHT22;6543;48.836;10.092;2023-06-14T12:57:17;22.20;77.00
12957;DHT22;6543;48.836;10.092;2023-06-14T12:59:44;22.60;76.60
12957;DHT22;6543;48.836;10.092;2023-06-14T13:02:15;22.50;76.10
12957;DHT22;6543;48.836;10.092;2023-06-14T13:04:42;22.60;76.50
12957;DHT22;6543;48.836;10.092;2023-06-14T13:07:09;22.30;75.60
12957;DHT22;6543;48.836;10.092;2023-06-14T13:09:37;22.40;75.70
12957;DHT22;6543;48.836;10.092;2023-06-14T13:12:08;22.40;74.90
12957;DHT22;6543;48.836;10.092;2023-06-14T13:14:36;22.30;74.10
12957;DHT22;6543;48.836;10.092;2023-06-14T13:17:04;21.70;72.80
12957;DHT22;6543;48.836;10.092;2023-06-14T13:19:34;22.60;74.30
12957;DHT22;6543;48.836;10.092;2023-06-14T13:22:01;22.90;74.30
12957;DHT22;6543;48.836;10.092;2023-06-14T13:24:32;23.10;74.40
12957;DHT22;6543;48.836;10.092;2023-06-14T13:27:00;23.10;73.00
12957;DHT22;6543;48.836;10.092;2023-06-14T13:29:27;22.70;73.40
12957;DHT22;6543;48.836;10.092;2023-06-14T13:31:56;23.10;73.30
12957;DHT22;6543;48.836;10.092;2023-06-14T13:34:29;23.10;73.90
12957;DHT22;6543;48.836;10.092;2023-06-14T13:37:06;23.90;74.10
12957;DHT22;6543;48.836;10.092;2023-06-14T13:39:35;22.70;75.00
12957;DHT22;6543;48.836;10.092;2023-06-14T13:42:03;22.70;75.40
12957;DHT22;6543;48.836;10.092;2023-06-14T13:44:36;22.80;75.80
12957;DHT22;6543;48.836;10.092;2023-06-14T13:47:09;23.30;76.00
12957;DHT22;6543;48.836;10.092;2023-06-14T13:49:39;23.80;74.50
12957;DHT22;6543;48.836;10.092;2023-06-14T13:52:11;23.70;74.20
12957;DHT22;6543;48.836;10.092;2023-06-14T13:54:41;23.70;74.90
12957;DHT22;6543;48.836;10.092;2023-06-14T13:57:09;23.20;76.00
12957;DHT22;6543;48.836;10.092;2023-06-14T13:59:40;23.50;76.00
12957;DHT22;6543;48.836;10.092;2023-06-14T14:02:09;23.80;75.50
12957;DHT22;6543;48.836;10.092;2023-06-14T14:04:52;23.90;75.00
12957;DHT22;6543;48.836;10.092;2023-06-14T14:07:43;23.70;73.80
12957;DHT22;6543;48.836;10.092;2023-06-14T14:10:47;24.30;73.80
12957;DHT22;6543;48.836;10.092;2023-06-14T14:13:18;24.50;72.90
12957;DHT22;6543;48.836;10.092;2023-06-14T14:15:55;23.80;73.30
12957;DHT22;6543;48.836;10.092;2023-06-14T14:18:41;24.60;73.70
12957;DHT22;6543;48.836;10.092;2023-06-14T14:21:20;23.90;73.50
12957;DHT22;6543;48.836;10.092;2023-06-14T14:30:47;24.60;72.70
12957;DHT22;6543;48.836;10.092;2023-06-14T14:33:17;24.20;71.90
12957;DHT22;6543;48.836;10.092;2023-06-14T14:35:45;23.90;72.00
12957;DHT22;6543;48.836;10.092;2023-06-14T14:38:15;23.80;72.10
12957;DHT22;6543;48.836;10.092;2023-06-14T14:40:50;23.60;72.40
12957;DHT22;6543;48.836;10.092;2023-06-14T14:43:19;23.60;73.20
12957;DHT22;6543;48.836;10.092;2023-06-14T14:45:48;23.60;73.20
12957;DHT22;6543;48.836;10.092;2023-06-14T14:48:19;23.50;73.20
12957;DHT22;6543;48.836;10.092;2023-06-14T14:50:50;23.70;72.90
12957;DHT22;6543;48.836;10.092;2023-06-14T14:53:18;24.10;72.60
12957;DHT22;6543;48.836;10.092;2023-06-14T14:55:45;24.30;72.10
12957;DHT22;6543;48.836;10.092;2023-06-14T14:58:14;25.00;71.20
12957;DHT22;6543;48.836;10.092;2023-06-14T15:00:43;25.40;69.60
12957;DHT22;6543;48.836;10.092;2023-06-14T15:03:13;27.00;67.90
12957;DHT22;6543;48.836;10.092;2023-06-14T15:05:43;26.90;67.90
12957;DHT22;6543;48.836;10.092;2023-06-14T15:08:10;26.20;68.50
12957;DHT22;6543;48.836;10.092;2023-06-14T15:10:38;26.20;69.10
12957;DHT22;6543;48.836;10.092;2023-06-14T15:13:07;25.30;69.90
12957;DHT22;6543;48.836;10.092;2023-06-14T15:15:34;24.50;70.40
12957;DHT22;6543;48.836;10.092;2023-06-14T15:18:01;24.40;70.50
12957;DHT22;6543;48.836;10.092;2023-06-14T15:20:31;24.60;69.80
12957;DHT22;6543;48.836;10.092;2023-06-14T15:22:58;24.80;69.90
12957;DHT22;6543;48.836;10.092;2023-06-14T15:25:26;25.80;70.60
12957;DHT22;6543;48.836;10.092;2023-06-14T15:27:55;24.00;69.50
12957;DHT22;6543;48.836;10.092;2023-06-14T15:30:26;24.20;70.60
12957;DHT22;6543;48.836;10.092;2023-06-14T15:32:57;23.80;70.50
12957;DHT22;6543;48.836;10.092;2023-06-14T15:35:24;23.70;71.40
12957;DHT22;6543;48.836;10.092;2023-06-14T15:37:54;24.10;71.20
12957;DHT22;6543;48.836;10.092;2023-06-14T15:40:21;24.10;71.00
12957;DHT22;6543;48.836;10.092;2023-06-14T15:45:35;25.50;69.60
12957;DHT22;6543;48.836;10.092;2023-06-14T15:48:04;25.50;69.30
12957;DHT22;6543;48.836;10.092;2023-06-14T15:50:31;26.10;68.40
12957;DHT22;6543;48.836;10.092;2023-06-14T15:52:59;26.40;68.30
12957;DHT22;6543;48.836;10.092;2023-06-14T15:55:26;26.20;68.30
12957;DHT22;6543;48.836;10.092;2023-06-14T15:57:53;26.30;68.30
12957;DHT22;6543;48.836;10.092;2023-06-14T16:00:21;25.70;69.20